Sadiqabad Weather



Sadiqabad's Current Weather

Temprature 29.326o clear sky

clear sky

Rain: 0 %

Min Temprature29.326o
Max Temprature29.326o
Humidity21
Wind Speed2.42 m/h
Sun Rise05:48:36
Sun Set18:47:36
Current Time: 21-Apr-2019 05:13:29
Lat/Lon: 28.31, 70.13




Sadiqabad's Geo Location



Sadiqabad's Weather Forecast

Time Overall Temp Min Temp Max Temp Humidity Wind Speed Rain
21-Apr-2019 (Sun)
08:00:00 clear sky 32.300 32.299 32.300 24 4.08 m/h 0 %
11:00:00 clear sky 38.350 38.350 38.350 16 3.78 m/h 0 %
14:00:00 clear sky 41.250 41.250 41.250 12 3.67 m/h 0 %
17:00:00 clear sky 41.450 41.450 41.450 11 3.83 m/h 0 %
20:00:00 clear sky 37.250 37.250 37.250 14 3.01 m/h 0 %
23:00:00 clear sky 35.310 35.310 35.310 16 3.7 m/h 0 %
22-Apr-2019 (Mon)
02:00:00 clear sky 33.170 33.170 33.170 22 3.8 m/h 0 %
05:00:00 clear sky 30.874 30.874 30.874 30 2.86 m/h 0 %
08:00:00 clear sky 33.636 33.636 33.636 27 5.06 m/h 0 %
11:00:00 clear sky 39.220 39.220 39.220 17 3.27 m/h 0 %
14:00:00 clear sky 42.815 42.815 42.815 10 2.97 m/h 0 %
17:00:00 clear sky 43.131 43.131 43.131 8 3.2 m/h 0 %
20:00:00 clear sky 38.650 38.650 38.650 11 1.6 m/h 0 %
23:00:00 clear sky 36.696 36.696 36.696 12 3.23 m/h 0 %
23-Apr-2019 (Tue)
02:00:00 clear sky 34.677 34.677 34.677 17 4.38 m/h 0 %
05:00:00 clear sky 32.236 32.236 32.236 19 3.47 m/h 0 %
08:00:00 clear sky 35.187 35.187 35.187 23 4.39 m/h 0 %
11:00:00 clear sky 42.850 42.850 42.850 11 6.48 m/h 0 %
14:00:00 broken clouds 44.650 44.650 44.650 8 6.37 m/h 0 %
17:00:00 overcast clouds 43.850 43.850 43.850 6 5.77 m/h 0 %
20:00:00 scattered clouds 39.028 39.028 39.028 8 4.67 m/h 0 %
23:00:00 few clouds 37.550 37.550 37.550 10 6.45 m/h 0 %
24-Apr-2019 (Wed)
02:00:00 clear sky 34.382 34.382 34.382 21 6.18 m/h 0 %
05:00:00 clear sky 31.664 31.664 31.664 26 4.5 m/h 0 %
08:00:00 clear sky 32.750 32.750 32.750 29 5.3 m/h 0 %
11:00:00 clear sky 38.409 38.409 38.409 22 4.42 m/h 0 %
14:00:00 clear sky 42.050 42.050 42.050 16 3.75 m/h 0 %
17:00:00 clear sky 42.750 42.750 42.750 12 3.42 m/h 0 %
20:00:00 light rain 35.655 35.655 35.655 25 12.48 m/h 169 %
23:00:00 light rain 36.545 36.545 36.545 22 1.94 m/h 6 %
25-Apr-2019 (Thu)
02:00:00 broken clouds 31.950 31.950 31.950 30 6.39 m/h 0 %
05:00:00 broken clouds 30.692 30.692 30.692 35 5.24 m/h 0 %
08:00:00 broken clouds 32.120 32.120 32.120 31 5.37 m/h 0 %
11:00:00 scattered clouds 37.090 37.090 37.090 23 4.22 m/h 0 %
14:00:00 clear sky 40.050 40.050 40.050 19 3.45 m/h 0 %
17:00:00 clear sky 40.511 40.511 40.511 16 1.75 m/h 0 %
20:00:00 light rain 38.925 38.925 38.925 18 0.98 m/h 6 %
23:00:00 broken clouds 36.543 36.543 36.543 21 3.33 m/h 0 %
26-Apr-2019 (Fri)
02:00:00 clear sky 34.532 34.532 34.532 23 4.08 m/h 0 %
05:00:00 clear sky 32.396 32.396 32.396 25 4.45 m/h 0 %


Sadiqabad's Tourist Spots

Historical Places in Sadiqabad

Famous Cities (60)